sensor_id;sensor_type;location;lat;lon;timestamp;P1;durP1;ratioP1;P2;durP2;ratioP2
65871;SDS011;52653;50.080;21.992;2024-01-16T00:02:33;13.00;;;7.70;;
65871;SDS011;52653;50.080;21.992;2024-01-16T00:05:27;13.10;;;8.60;;
65871;SDS011;52653;50.080;21.992;2024-01-16T00:08:19;12.00;;;7.90;;
65871;SDS011;52653;50.080;21.992;2024-01-16T00:11:22;14.30;;;8.60;;
65871;SDS011;52653;50.080;21.992;2024-01-16T00:14:16;13.20;;;8.20;;
65871;SDS011;52653;50.080;21.992;2024-01-16T00:17:08;13.20;;;7.80;;
65871;SDS011;52653;50.080;21.992;2024-01-16T00:20:03;12.50;;;7.80;;
65871;SDS011;52653;50.080;21.992;2024-01-16T00:22:57;14.30;;;8.40;;
65871;SDS011;52653;50.080;21.992;2024-01-16T00:26:11;12.10;;;7.40;;
65871;SDS011;52653;50.080;21.992;2024-01-16T00:29:28;12.80;;;8.10;;
65871;SDS011;52653;50.080;21.992;2024-01-16T00:32:21;12.80;;;8.40;;
65871;SDS011;52653;50.080;21.992;2024-01-16T00:35:14;12.80;;;6.80;;
65871;SDS011;52653;50.080;21.992;2024-01-16T00:38:05;12.70;;;6.90;;
65871;SDS011;52653;50.080;21.992;2024-01-16T00:40:58;12.50;;;6.70;;
65871;SDS011;52653;50.080;21.992;2024-01-16T00:44:29;11.90;;;7.30;;
65871;SDS011;52653;50.080;21.992;2024-01-16T00:47:22;12.00;;;7.90;;
65871;SDS011;52653;50.080;21.992;2024-01-16T00:50:18;12.80;;;7.20;;
65871;SDS011;52653;50.080;21.992;2024-01-16T00:53:11;13.20;;;7.00;;
65871;SDS011;52653;50.080;21.992;2024-01-16T00:56:03;12.60;;;5.70;;
65871;SDS011;52653;50.080;21.992;2024-01-16T00:58:55;13.20;;;6.70;;
65871;SDS011;52653;50.080;21.992;2024-01-16T01:01:48;11.00;;;6.00;;
65871;SDS011;52653;50.080;21.992;2024-01-16T01:04:41;11.60;;;7.00;;
65871;SDS011;52653;50.080;21.992;2024-01-16T01:07:37;11.20;;;6.90;;
65871;SDS011;52653;50.080;21.992;2024-01-16T01:10:30;10.40;;;6.90;;
65871;SDS011;52653;50.080;21.992;2024-01-16T01:13:22;12.80;;;7.50;;
65871;SDS011;52653;50.080;21.992;2024-01-16T01:16:15;12.50;;;7.70;;
65871;SDS011;52653;50.080;21.992;2024-01-16T01:19:08;12.40;;;7.40;;
65871;SDS011;52653;50.080;21.992;2024-01-16T01:22:02;12.10;;;7.60;;
65871;SDS011;52653;50.080;21.992;2024-01-16T01:24:55;11.40;;;7.30;;
65871;SDS011;52653;50.080;21.992;2024-01-16T01:27:46;12.50;;;7.40;;
65871;SDS011;52653;50.080;21.992;2024-01-16T01:30:42;10.60;;;7.10;;
65871;SDS011;52653;50.080;21.992;2024-01-16T01:33:34;12.50;;;7.50;;
65871;SDS011;52653;50.080;21.992;2024-01-16T01:36:19;10.70;;;6.40;;
65871;SDS011;52653;50.080;21.992;2024-01-16T01:39:02;9.80;;;6.30;;
65871;SDS011;52653;50.080;21.992;2024-01-16T01:41:49;11.80;;;6.70;;
65871;SDS011;52653;50.080;21.992;2024-01-16T01:44:34;10.40;;;6.00;;
65871;SDS011;52653;50.080;21.992;2024-01-16T01:47:25;10.80;;;6.30;;
65871;SDS011;52653;50.080;21.992;2024-01-16T01:50:18;11.10;;;7.10;;
65871;SDS011;52653;50.080;21.992;2024-01-16T01:53:11;10.70;;;6.20;;
65871;SDS011;52653;50.080;21.992;2024-01-16T01:55:58;10.50;;;7.00;;
65871;SDS011;52653;50.080;21.992;2024-01-16T01:58:54;11.40;;;6.40;;
65871;SDS011;52653;50.080;21.992;2024-01-16T02:01:49;11.50;;;6.60;;
65871;SDS011;52653;50.080;21.992;2024-01-16T02:04:43;9.60;;;6.40;;
65871;SDS011;52653;50.080;21.992;2024-01-16T02:07:37;10.90;;;6.60;;
65871;SDS011;52653;50.080;21.992;2024-01-16T02:10:24;10.20;;;6.80;;
65871;SDS011;52653;50.080;21.992;2024-01-16T02:13:10;11.00;;;6.90;;
65871;SDS011;52653;50.080;21.992;2024-01-16T02:16:03;11.40;;;7.50;;
65871;SDS011;52653;50.080;21.992;2024-01-16T02:18:56;10.10;;;6.70;;
65871;SDS011;52653;50.080;21.992;2024-01-16T02:21:39;11.30;;;6.90;;
65871;SDS011;52653;50.080;21.992;2024-01-16T02:24:27;11.80;;;6.90;;
65871;SDS011;52653;50.080;21.992;2024-01-16T02:27:20;10.60;;;7.00;;
65871;SDS011;52653;50.080;21.992;2024-01-16T02:30:17;10.70;;;6.50;;
65871;SDS011;52653;50.080;21.992;2024-01-16T02:32:52;11.70;;;6.80;;
65871;SDS011;52653;50.080;21.992;2024-01-16T02:35:45;10.60;;;6.30;;
65871;SDS011;52653;50.080;21.992;2024-01-16T02:38:38;11.90;;;5.50;;
65871;SDS011;52653;50.080;21.992;2024-01-16T02:41:35;11.00;;;6.90;;
65871;SDS011;52653;50.080;21.992;2024-01-16T02:44:28;12.00;;;7.70;;
65871;SDS011;52653;50.080;21.992;2024-01-16T02:47:21;11.40;;;7.60;;
65871;SDS011;52653;50.080;21.992;2024-01-16T02:50:12;11.40;;;7.60;;
65871;SDS011;52653;50.080;21.992;2024-01-16T02:53:05;11.90;;;6.60;;
65871;SDS011;52653;50.080;21.992;2024-01-16T02:55:58;10.90;;;6.90;;
65871;SDS011;52653;50.080;21.992;2024-01-16T02:58:48;11.90;;;8.10;;
65871;SDS011;52653;50.080;21.992;2024-01-16T03:01:43;12.20;;;7.70;;
65871;SDS011;52653;50.080;21.992;2024-01-16T03:04:35;12.00;;;7.60;;
65871;SDS011;52653;50.080;21.992;2024-01-16T03:07:29;11.40;;;8.00;;
65871;SDS011;52653;50.080;21.992;2024-01-16T03:10:12;12.00;;;8.10;;
65871;SDS011;52653;50.080;21.992;2024-01-16T03:12:57;12.00;;;8.80;;
65871;SDS011;52653;50.080;21.992;2024-01-16T03:15:55;13.50;;;8.00;;
65871;SDS011;52653;50.080;21.992;2024-01-16T03:18:47;10.80;;;7.00;;
65871;SDS011;52653;50.080;21.992;2024-01-16T03:21:40;11.60;;;7.70;;
65871;SDS011;52653;50.080;21.992;2024-01-16T03:24:21;12.30;;;8.50;;
65871;SDS011;52653;50.080;21.992;2024-01-16T03:27:13;12.90;;;8.10;;
65871;SDS011;52653;50.080;21.992;2024-01-16T03:30:00;13.10;;;8.30;;
65871;SDS011;52653;50.080;21.992;2024-01-16T03:32:53;14.10;;;9.20;;
65871;SDS011;52653;50.080;21.992;2024-01-16T03:35:29;12.80;;;8.70;;
65871;SDS011;52653;50.080;21.992;2024-01-16T03:38:22;14.30;;;9.30;;
65871;SDS011;52653;50.080;21.992;2024-01-16T03:41:26;13.30;;;8.70;;
65871;SDS011;52653;50.080;21.992;2024-01-16T03:44:19;13.90;;;8.70;;
65871;SDS011;52653;50.080;21.992;2024-01-16T03:47:10;12.30;;;8.80;;
65871;SDS011;52653;50.080;21.992;2024-01-16T03:50:03;13.10;;;8.70;;
65871;SDS011;52653;50.080;21.992;2024-01-16T03:52:57;12.40;;;8.20;;
65871;SDS011;52653;50.080;21.992;2024-01-16T03:55:50;12.40;;;8.20;;
65871;SDS011;52653;50.080;21.992;2024-01-16T03:58:36;12.00;;;8.70;;
65871;SDS011;52653;50.080;21.992;2024-01-16T04:01:33;14.40;;;9.50;;
65871;SDS011;52653;50.080;21.992;2024-01-16T04:04:27;13.40;;;8.20;;
65871;SDS011;52653;50.080;21.992;2024-01-16T04:07:12;12.30;;;8.50;;
65871;SDS011;52653;50.080;21.992;2024-01-16T04:10:05;14.00;;;8.60;;
65871;SDS011;52653;50.080;21.992;2024-01-16T04:13:01;13.30;;;8.30;;
65871;SDS011;52653;50.080;21.992;2024-01-16T04:15:54;13.60;;;9.00;;
65871;SDS011;52653;50.080;21.992;2024-01-16T04:18:34;15.70;;;9.60;;
65871;SDS011;52653;50.080;21.992;2024-01-16T04:21:29;11.50;;;7.60;;
65871;SDS011;52653;50.080;21.992;2024-01-16T04:24:15;11.80;;;8.20;;
65871;SDS011;52653;50.080;21.992;2024-01-16T04:27:08;12.20;;;9.30;;
65871;SDS011;52653;50.080;21.992;2024-01-16T04:29:55;11.80;;;8.30;;
65871;SDS011;52653;50.080;21.992;2024-01-16T04:32:47;12.20;;;8.90;;
65871;SDS011;52653;50.080;21.992;2024-01-16T04:35:40;11.80;;;8.10;;
65871;SDS011;52653;50.080;21.992;2024-01-16T04:38:33;13.00;;;9.10;;
65871;SDS011;52653;50.080;21.992;2024-01-16T04:41:19;13.60;;;9.20;;
65871;SDS011;52653;50.080;21.992;2024-01-16T04:44:05;14.80;;;10.00;;
65871;SDS011;52653;50.080;21.992;2024-01-16T04:47:01;15.10;;;9.60;;
65871;SDS011;52653;50.080;21.992;2024-01-16T04:49:46;14.20;;;9.90;;
65871;SDS011;52653;50.080;21.992;2024-01-16T04:52:39;16.00;;;10.10;;
65871;SDS011;52653;50.080;21.992;2024-01-16T04:55:34;13.80;;;10.20;;
65871;SDS011;52653;50.080;21.992;2024-01-16T04:58:28;17.00;;;11.10;;
65871;SDS011;52653;50.080;21.992;2024-01-16T05:01:22;17.20;;;11.10;;
65871;SDS011;52653;50.080;21.992;2024-01-16T05:04:08;17.30;;;11.00;;
65871;SDS011;52653;50.080;21.992;2024-01-16T05:07:01;17.40;;;11.30;;
65871;SDS011;52653;50.080;21.992;2024-01-16T05:09:54;19.40;;;11.50;;
65871;SDS011;52653;50.080;21.992;2024-01-16T05:12:48;16.90;;;11.70;;
65871;SDS011;52653;50.080;21.992;2024-01-16T05:15:41;20.00;;;11.50;;
65871;SDS011;52653;50.080;21.992;2024-01-16T05:18:26;18.70;;;11.50;;
65871;SDS011;52653;50.080;21.992;2024-01-16T05:21:20;18.70;;;11.90;;
65871;SDS011;52653;50.080;21.992;2024-01-16T05:24:13;19.10;;;12.20;;
65871;SDS011;52653;50.080;21.992;2024-01-16T05:27:06;17.40;;;11.50;;
65871;SDS011;52653;50.080;21.992;2024-01-16T05:30:00;17.00;;;10.40;;
65871;SDS011;52653;50.080;21.992;2024-01-16T05:32:54;15.20;;;9.80;;
65871;SDS011;52653;50.080;21.992;2024-01-16T05:35:44;15.50;;;10.50;;
65871;SDS011;52653;50.080;21.992;2024-01-16T05:38:28;14.80;;;10.40;;
65871;SDS011;52653;50.080;21.992;2024-01-16T05:41:43;15.00;;;10.30;;
65871;SDS011;52653;50.080;21.992;2024-01-16T05:44:38;14.50;;;10.50;;
65871;SDS011;52653;50.080;21.992;2024-01-16T05:47:33;15.70;;;10.70;;
65871;SDS011;52653;50.080;21.992;2024-01-16T05:50:25;15.30;;;10.20;;
65871;SDS011;52653;50.080;21.992;2024-01-16T05:53:18;16.30;;;10.70;;
65871;SDS011;52653;50.080;21.992;2024-01-16T05:56:11;15.00;;;10.70;;
65871;SDS011;52653;50.080;21.992;2024-01-16T05:59:05;16.90;;;11.90;;
65871;SDS011;52653;50.080;21.992;2024-01-16T06:01:58;16.60;;;11.50;;
65871;SDS011;52653;50.080;21.992;2024-01-16T06:04:54;15.20;;;10.20;;
65871;SDS011;52653;50.080;21.992;2024-01-16T06:07:47;16.30;;;12.10;;
65871;SDS011;52653;50.080;21.992;2024-01-16T06:10:34;16.00;;;11.60;;
65871;SDS011;52653;50.080;21.992;2024-01-16T06:13:27;18.30;;;12.30;;
65871;SDS011;52653;50.080;21.992;2024-01-16T06:16:27;15.60;;;11.20;;
65871;SDS011;52653;50.080;21.992;2024-01-16T06:19:13;20.20;;;13.70;;
65871;SDS011;52653;50.080;21.992;2024-01-16T06:21:57;21.80;;;13.80;;
65871;SDS011;52653;50.080;21.992;2024-01-16T06:24:50;18.30;;;12.60;;
65871;SDS011;52653;50.080;21.992;2024-01-16T06:27:43;18.90;;;12.90;;
65871;SDS011;52653;50.080;21.992;2024-01-16T06:30:35;17.10;;;12.10;;
65871;SDS011;52653;50.080;21.992;2024-01-16T06:33:31;17.40;;;12.30;;
65871;SDS011;52653;50.080;21.992;2024-01-16T06:36:25;17.80;;;11.80;;
65871;SDS011;52653;50.080;21.992;2024-01-16T06:39:15;17.70;;;12.50;;
65871;SDS011;52653;50.080;21.992;2024-01-16T06:42:01;18.80;;;12.70;;
65871;SDS011;52653;50.080;21.992;2024-01-16T06:45:01;16.80;;;11.80;;
65871;SDS011;52653;50.080;21.992;2024-01-16T06:47:55;22.20;;;14.10;;
65871;SDS011;52653;50.080;21.992;2024-01-16T06:50:48;21.70;;;14.20;;
65871;SDS011;52653;50.080;21.992;2024-01-16T06:53:41;17.00;;;11.80;;
65871;SDS011;52653;50.080;21.992;2024-01-16T06:56:33;16.40;;;10.60;;
65871;SDS011;52653;50.080;21.992;2024-01-16T06:59:27;15.30;;;10.40;;
65871;SDS011;52653;50.080;21.992;2024-01-16T07:02:20;13.50;;;9.20;;
65871;SDS011;52653;50.080;21.992;2024-01-16T07:05:13;14.30;;;8.90;;
65871;SDS011;52653;50.080;21.992;2024-01-16T07:08:27;12.30;;;7.90;;
65871;SDS011;52653;50.080;21.992;2024-01-16T07:11:20;15.20;;;9.40;;
65871;SDS011;52653;50.080;21.992;2024-01-16T07:14:14;13.50;;;8.80;;
65871;SDS011;52653;50.080;21.992;2024-01-16T07:17:03;14.20;;;9.30;;
65871;SDS011;52653;50.080;21.992;2024-01-16T07:19:58;12.00;;;8.40;;
65871;SDS011;52653;50.080;21.992;2024-01-16T07:22:52;12.10;;;8.10;;
65871;SDS011;52653;50.080;21.992;2024-01-16T07:25:43;13.00;;;7.70;;
65871;SDS011;52653;50.080;21.992;2024-01-16T07:28:36;12.90;;;8.30;;
65871;SDS011;52653;50.080;21.992;2024-01-16T07:31:21;11.60;;;8.10;;
65871;SDS011;52653;50.080;21.992;2024-01-16T07:34:15;12.60;;;8.20;;
65871;SDS011;52653;50.080;21.992;2024-01-16T07:37:12;11.30;;;8.00;;
65871;SDS011;52653;50.080;21.992;2024-01-16T07:40:08;12.50;;;8.80;;
65871;SDS011;52653;50.080;21.992;2024-01-16T07:43:08;20.00;;;14.50;;
65871;SDS011;52653;50.080;21.992;2024-01-16T07:45:51;20.30;;;12.80;;
65871;SDS011;52653;50.080;21.992;2024-01-16T07:48:45;20.90;;;13.10;;
65871;SDS011;52653;50.080;21.992;2024-01-16T07:51:38;15.80;;;10.50;;
65871;SDS011;52653;50.080;21.992;2024-01-16T07:54:32;15.00;;;9.80;;
65871;SDS011;52653;50.080;21.992;2024-01-16T07:57:25;15.70;;;10.70;;
65871;SDS011;52653;50.080;21.992;2024-01-16T08:00:19;17.20;;;11.80;;
65871;SDS011;52653;50.080;21.992;2024-01-16T08:03:12;15.90;;;11.50;;
65871;SDS011;52653;50.080;21.992;2024-01-16T08:06:05;17.00;;;12.10;;
65871;SDS011;52653;50.080;21.992;2024-01-16T08:08:58;20.60;;;13.60;;
65871;SDS011;52653;50.080;21.992;2024-01-16T08:11:45;19.20;;;12.90;;
65871;SDS011;52653;50.080;21.992;2024-01-16T08:14:30;22.70;;;14.50;;
65871;SDS011;52653;50.080;21.992;2024-01-16T08:17:23;14.50;;;10.80;;
65871;SDS011;52653;50.080;21.992;2024-01-16T08:20:16;15.50;;;11.40;;
65871;SDS011;52653;50.080;21.992;2024-01-16T08:23:10;15.50;;;11.70;;
65871;SDS011;52653;50.080;21.992;2024-01-16T08:26:03;19.80;;;14.90;;
65871;SDS011;52653;50.080;21.992;2024-01-16T08:28:47;17.90;;;13.40;;
65871;SDS011;52653;50.080;21.992;2024-01-16T08:31:34;23.70;;;15.90;;
65871;SDS011;52653;50.080;21.992;2024-01-16T08:34:27;17.70;;;13.00;;
65871;SDS011;52653;50.080;21.992;2024-01-16T08:37:23;19.10;;;12.60;;
65871;SDS011;52653;50.080;21.992;2024-01-16T08:40:18;17.70;;;12.10;;
65871;SDS011;52653;50.080;21.992;2024-01-16T08:43:12;10.80;;;7.10;;
65871;SDS011;52653;50.080;21.992;2024-01-16T08:46:06;14.40;;;10.50;;
65871;SDS011;52653;50.080;21.992;2024-01-16T08:48:59;12.50;;;7.50;;
65871;SDS011;52653;50.080;21.992;2024-01-16T08:51:47;12.90;;;7.70;;
65871;SDS011;52653;50.080;21.992;2024-01-16T08:54:41;14.80;;;9.90;;
65871;SDS011;52653;50.080;21.992;2024-01-16T08:57:33;11.80;;;7.20;;
65871;SDS011;52653;50.080;21.992;2024-01-16T09:00:27;11.70;;;7.60;;
65871;SDS011;52653;50.080;21.992;2024-01-16T09:03:20;14.90;;;10.00;;
65871;SDS011;52653;50.080;21.992;2024-01-16T09:06:13;16.10;;;10.70;;
65871;SDS011;52653;50.080;21.992;2024-01-16T09:09:06;13.40;;;8.70;;
65871;SDS011;52653;50.080;21.992;2024-01-16T09:11:59;13.20;;;9.20;;
65871;SDS011;52653;50.080;21.992;2024-01-16T09:14:53;15.20;;;9.30;;
65871;SDS011;52653;50.080;21.992;2024-01-16T09:17:46;15.10;;;9.40;;
65871;SDS011;52653;50.080;21.992;2024-01-16T09:23:56;12.90;;;7.40;;
65871;SDS011;52653;50.080;21.992;2024-01-16T09:26:52;11.10;;;7.00;;
65871;SDS011;52653;50.080;21.992;2024-01-16T09:29:45;18.90;;;11.90;;
65871;SDS011;52653;50.080;21.992;2024-01-16T09:32:21;14.30;;;9.00;;
65871;SDS011;52653;50.080;21.992;2024-01-16T09:35:13;12.40;;;8.10;;
65871;SDS011;52653;50.080;21.992;2024-01-16T09:37:50;14.70;;;9.80;;
65871;SDS011;52653;50.080;21.992;2024-01-16T09:40:41;46.50;;;20.40;;
65871;SDS011;52653;50.080;21.992;2024-01-16T09:43:35;40.30;;;18.40;;
65871;SDS011;52653;50.080;21.992;2024-01-16T09:46:29;24.00;;;13.10;;
65871;SDS011;52653;50.080;21.992;2024-01-16T09:49:25;26.00;;;13.90;;
65871;SDS011;52653;50.080;21.992;2024-01-16T09:52:18;58.20;;;26.40;;
65871;SDS011;52653;50.080;21.992;2024-01-16T09:55:13;24.00;;;13.60;;
65871;SDS011;52653;50.080;21.992;2024-01-16T09:58:07;20.60;;;13.00;;
65871;SDS011;52653;50.080;21.992;2024-01-16T10:01:04;18.70;;;12.00;;
65871;SDS011;52653;50.080;21.992;2024-01-16T10:03:57;15.70;;;10.10;;
65871;SDS011;52653;50.080;21.992;2024-01-16T10:06:50;17.00;;;11.20;;
65871;SDS011;52653;50.080;21.992;2024-01-16T10:09:46;16.10;;;9.60;;
65871;SDS011;52653;50.080;21.992;2024-01-16T10:12:29;17.50;;;10.30;;
65871;SDS011;52653;50.080;21.992;2024-01-16T10:15:16;15.50;;;9.50;;
65871;SDS011;52653;50.080;21.992;2024-01-16T10:18:22;12.20;;;6.80;;
65871;SDS011;52653;50.080;21.992;2024-01-16T10:21:21;37.80;;;15.30;;
65871;SDS011;52653;50.080;21.992;2024-01-16T10:24:19;32.80;;;13.10;;
65871;SDS011;52653;50.080;21.992;2024-01-16T10:27:14;25.40;;;13.00;;
65871;SDS011;52653;50.080;21.992;2024-01-16T10:30:09;18.30;;;11.50;;
65871;SDS011;52653;50.080;21.992;2024-01-16T10:32:53;16.10;;;10.40;;
65871;SDS011;52653;50.080;21.992;2024-01-16T10:35:47;19.70;;;13.60;;
65871;SDS011;52653;50.080;21.992;2024-01-16T10:38:44;18.00;;;11.40;;
65871;SDS011;52653;50.080;21.992;2024-01-16T10:41:41;16.50;;;9.70;;
65871;SDS011;52653;50.080;21.992;2024-01-16T10:44:53;19.60;;;10.90;;
65871;SDS011;52653;50.080;21.992;2024-01-16T10:47:47;17.10;;;9.90;;
65871;SDS011;52653;50.080;21.992;2024-01-16T10:50:40;18.30;;;11.20;;
65871;SDS011;52653;50.080;21.992;2024-01-16T10:53:34;15.00;;;9.70;;
65871;SDS011;52653;50.080;21.992;2024-01-16T10:56:28;14.20;;;8.60;;
65871;SDS011;52653;50.080;21.992;2024-01-16T10:59:24;15.10;;;9.60;;
65871;SDS011;52653;50.080;21.992;2024-01-16T11:02:27;13.10;;;8.90;;
65871;SDS011;52653;50.080;21.992;2024-01-16T11:05:23;15.80;;;9.20;;
65871;SDS011;52653;50.080;21.992;2024-01-16T11:08:19;19.10;;;10.90;;
65871;SDS011;52653;50.080;21.992;2024-01-16T11:11:11;13.80;;;7.60;;
65871;SDS011;52653;50.080;21.992;2024-01-16T11:14:06;10.10;;;5.40;;
65871;SDS011;52653;50.080;21.992;2024-01-16T11:16:59;13.50;;;6.20;;
65871;SDS011;52653;50.080;21.992;2024-01-16T11:19:47;9.80;;;6.00;;
65871;SDS011;52653;50.080;21.992;2024-01-16T11:23:01;10.80;;;5.20;;
65871;SDS011;52653;50.080;21.992;2024-01-16T11:25:54;9.80;;;6.20;;
65871;SDS011;52653;50.080;21.992;2024-01-16T11:28:48;11.80;;;5.70;;
65871;SDS011;52653;50.080;21.992;2024-01-16T11:31:41;9.80;;;5.40;;
65871;SDS011;52653;50.080;21.992;2024-01-16T11:37:46;12.50;;;5.40;;
65871;SDS011;52653;50.080;21.992;2024-01-16T11:40:37;7.60;;;4.10;;
65871;SDS011;52653;50.080;21.992;2024-01-16T11:43:36;5.10;;;2.70;;
65871;SDS011;52653;50.080;21.992;2024-01-16T11:46:31;5.40;;;3.20;;
65871;SDS011;52653;50.080;21.992;2024-01-16T11:50:08;6.40;;;3.70;;
65871;SDS011;52653;50.080;21.992;2024-01-16T11:53:02;7.00;;;3.90;;
65871;SDS011;52653;50.080;21.992;2024-01-16T11:55:44;8.00;;;4.00;;
65871;SDS011;52653;50.080;21.992;2024-01-16T11:59:01;8.60;;;4.90;;
65871;SDS011;52653;50.080;21.992;2024-01-16T12:02:23;10.00;;;5.10;;
65871;SDS011;52653;50.080;21.992;2024-01-16T12:05:38;10.60;;;6.00;;
65871;SDS011;52653;50.080;21.992;2024-01-16T12:08:34;12.40;;;6.90;;
65871;SDS011;52653;50.080;21.992;2024-01-16T12:11:22;11.10;;;6.20;;
65871;SDS011;52653;50.080;21.992;2024-01-16T12:14:29;12.30;;;6.50;;
65871;SDS011;52653;50.080;21.992;2024-01-16T12:17:17;10.80;;;6.80;;
65871;SDS011;52653;50.080;21.992;2024-01-16T12:19:55;12.30;;;7.40;;
65871;SDS011;52653;50.080;21.992;2024-01-16T12:22:54;12.90;;;8.40;;
65871;SDS011;52653;50.080;21.992;2024-01-16T12:25:51;15.20;;;9.60;;
65871;SDS011;52653;50.080;21.992;2024-01-16T12:28:54;15.70;;;10.60;;
65871;SDS011;52653;50.080;21.992;2024-01-16T12:32:05;18.80;;;11.70;;
65871;SDS011;52653;50.080;21.992;2024-01-16T12:34:50;16.90;;;11.60;;
65871;SDS011;52653;50.080;21.992;2024-01-16T12:37:43;16.00;;;10.50;;
65871;SDS011;52653;50.080;21.992;2024-01-16T12:40:49;18.00;;;11.00;;
65871;SDS011;52653;50.080;21.992;2024-01-16T12:43:43;21.80;;;13.50;;
65871;SDS011;52653;50.080;21.992;2024-01-16T12:46:54;21.00;;;15.10;;
65871;SDS011;52653;50.080;21.992;2024-01-16T12:53:06;20.30;;;13.30;;
65871;SDS011;52653;50.080;21.992;2024-01-16T12:55:58;22.60;;;12.20;;
65871;SDS011;52653;50.080;21.992;2024-01-16T12:59:10;14.00;;;9.10;;
65871;SDS011;52653;50.080;21.992;2024-01-16T13:01:57;15.50;;;9.70;;
65871;SDS011;52653;50.080;21.992;2024-01-16T13:04:45;12.80;;;8.10;;
65871;SDS011;52653;50.080;21.992;2024-01-16T13:07:32;12.10;;;8.10;;
65871;SDS011;52653;50.080;21.992;2024-01-16T13:10:20;11.30;;;7.10;;
65871;SDS011;52653;50.080;21.992;2024-01-16T13:13:14;11.70;;;7.00;;
65871;SDS011;52653;50.080;21.992;2024-01-16T13:16:09;18.10;;;10.30;;
65871;SDS011;52653;50.080;21.992;2024-01-16T13:19:02;20.10;;;10.90;;
65871;SDS011;52653;50.080;21.992;2024-01-16T13:24:51;21.60;;;12.00;;
65871;SDS011;52653;50.080;21.992;2024-01-16T13:28:08;18.10;;;10.80;;
65871;SDS011;52653;50.080;21.992;2024-01-16T13:30:46;16.20;;;8.90;;
65871;SDS011;52653;50.080;21.992;2024-01-16T13:33:33;19.10;;;11.20;;
65871;SDS011;52653;50.080;21.992;2024-01-16T13:36:26;15.00;;;7.80;;
65871;SDS011;52653;50.080;21.992;2024-01-16T13:39:22;13.90;;;7.20;;
65871;SDS011;52653;50.080;21.992;2024-01-16T13:42:13;12.50;;;6.50;;
65871;SDS011;52653;50.080;21.992;2024-01-16T13:45:12;11.50;;;6.10;;
65871;SDS011;52653;50.080;21.992;2024-01-16T13:48:09;19.30;;;9.00;;
65871;SDS011;52653;50.080;21.992;2024-01-16T13:50:57;14.80;;;8.10;;
65871;SDS011;52653;50.080;21.992;2024-01-16T13:53:50;14.40;;;7.50;;
65871;SDS011;52653;50.080;21.992;2024-01-16T13:56:35;19.90;;;10.10;;
65871;SDS011;52653;50.080;21.992;2024-01-16T13:59:47;18.30;;;10.00;;
65871;SDS011;52653;50.080;21.992;2024-01-16T14:02:38;16.30;;;8.80;;
65871;SDS011;52653;50.080;21.992;2024-01-16T14:05:24;18.00;;;11.10;;
65871;SDS011;52653;50.080;21.992;2024-01-16T14:08:17;18.50;;;11.30;;
65871;SDS011;52653;50.080;21.992;2024-01-16T14:11:11;20.90;;;11.50;;
65871;SDS011;52653;50.080;21.992;2024-01-16T14:14:04;20.90;;;13.20;;
65871;SDS011;52653;50.080;21.992;2024-01-16T14:17:18;17.80;;;11.80;;
65871;SDS011;52653;50.080;21.992;2024-01-16T14:20:12;24.50;;;14.40;;
65871;SDS011;52653;50.080;21.992;2024-01-16T14:23:06;22.80;;;14.70;;
65871;SDS011;52653;50.080;21.992;2024-01-16T14:25:58;22.10;;;15.10;;
65871;SDS011;52653;50.080;21.992;2024-01-16T14:28:52;21.90;;;13.10;;
65871;SDS011;52653;50.080;21.992;2024-01-16T14:31:45;22.30;;;13.60;;
65871;SDS011;52653;50.080;21.992;2024-01-16T14:34:39;22.30;;;13.40;;
65871;SDS011;52653;50.080;21.992;2024-01-16T14:37:32;24.70;;;14.30;;
65871;SDS011;52653;50.080;21.992;2024-01-16T14:40:20;23.00;;;14.10;;
65871;SDS011;52653;50.080;21.992;2024-01-16T14:43:16;29.10;;;16.40;;
65871;SDS011;52653;50.080;21.992;2024-01-16T14:46:08;28.20;;;18.30;;
65871;SDS011;52653;50.080;21.992;2024-01-16T14:49:00;29.10;;;19.90;;
65871;SDS011;52653;50.080;21.992;2024-01-16T14:52:00;30.30;;;20.90;;
65871;SDS011;52653;50.080;21.992;2024-01-16T14:54:57;30.40;;;21.30;;
65871;SDS011;52653;50.080;21.992;2024-01-16T14:57:52;39.40;;;27.00;;
65871;SDS011;52653;50.080;21.992;2024-01-16T15:00:50;77.00;;;47.10;;
65871;SDS011;52653;50.080;21.992;2024-01-16T15:03:46;109.10;;;62.60;;
65871;SDS011;52653;50.080;21.992;2024-01-16T15:06:39;92.90;;;54.70;;
65871;SDS011;52653;50.080;21.992;2024-01-16T15:09:32;76.80;;;49.80;;
65871;SDS011;52653;50.080;21.992;2024-01-16T15:12:27;61.60;;;41.20;;
65871;SDS011;52653;50.080;21.992;2024-01-16T15:15:41;53.10;;;37.90;;
65871;SDS011;52653;50.080;21.992;2024-01-16T15:18:24;54.20;;;35.60;;
65871;SDS011;52653;50.080;21.992;2024-01-16T15:21:18;58.60;;;38.00;;
65871;SDS011;52653;50.080;21.992;2024-01-16T15:24:11;56.90;;;41.60;;
65871;SDS011;52653;50.080;21.992;2024-01-16T15:27:09;51.70;;;35.70;;
65871;SDS011;52653;50.080;21.992;2024-01-16T15:29:55;48.90;;;35.00;;
65871;SDS011;52653;50.080;21.992;2024-01-16T15:32:49;39.60;;;24.00;;
65871;SDS011;52653;50.080;21.992;2024-01-16T15:35:41;38.50;;;26.60;;
65871;SDS011;52653;50.080;21.992;2024-01-16T15:38:35;39.70;;;25.00;;
65871;SDS011;52653;50.080;21.992;2024-01-16T15:41:16;44.70;;;28.00;;
65871;SDS011;52653;50.080;21.992;2024-01-16T15:44:05;49.10;;;30.10;;
65871;SDS011;52653;50.080;21.992;2024-01-16T15:47:04;57.60;;;34.80;;
65871;SDS011;52653;50.080;21.992;2024-01-16T15:49:57;78.90;;;46.90;;
65871;SDS011;52653;50.080;21.992;2024-01-16T15:52:50;98.00;;;57.50;;
65871;SDS011;52653;50.080;21.992;2024-01-16T15:55:44;121.10;;;68.70;;
65871;SDS011;52653;50.080;21.992;2024-01-16T15:58:37;122.50;;;73.30;;
65871;SDS011;52653;50.080;21.992;2024-01-16T16:01:30;123.60;;;69.30;;
65871;SDS011;52653;50.080;21.992;2024-01-16T16:04:23;123.00;;;69.40;;
65871;SDS011;52653;50.080;21.992;2024-01-16T16:07:15;111.90;;;72.20;;
65871;SDS011;52653;50.080;21.992;2024-01-16T16:10:11;115.60;;;76.40;;
65871;SDS011;52653;50.080;21.992;2024-01-16T16:13:05;100.50;;;67.60;;
65871;SDS011;52653;50.080;21.992;2024-01-16T16:16:00;96.00;;;59.90;;
65871;SDS011;52653;50.080;21.992;2024-01-16T16:18:53;104.00;;;61.70;;
65871;SDS011;52653;50.080;21.992;2024-01-16T16:21:46;82.50;;;53.70;;
65871;SDS011;52653;50.080;21.992;2024-01-16T16:24:33;81.40;;;54.70;;
65871;SDS011;52653;50.080;21.992;2024-01-16T16:27:26;90.80;;;59.00;;
65871;SDS011;52653;50.080;21.992;2024-01-16T16:30:18;116.70;;;72.20;;
65871;SDS011;52653;50.080;21.992;2024-01-16T16:33:03;111.40;;;70.00;;
65871;SDS011;52653;50.080;21.992;2024-01-16T16:35:58;103.80;;;63.30;;
65871;SDS011;52653;50.080;21.992;2024-01-16T16:38:51;122.50;;;74.60;;
65871;SDS011;52653;50.080;21.992;2024-01-16T16:41:46;114.90;;;68.70;;
65871;SDS011;52653;50.080;21.992;2024-01-16T16:44:35;98.90;;;62.90;;
65871;SDS011;52653;50.080;21.992;2024-01-16T16:47:28;83.50;;;55.10;;
65871;SDS011;52653;50.080;21.992;2024-01-16T16:50:20;80.00;;;52.60;;
65871;SDS011;52653;50.080;21.992;2024-01-16T16:53:13;77.00;;;52.20;;
65871;SDS011;52653;50.080;21.992;2024-01-16T16:56:06;75.90;;;48.50;;
65871;SDS011;52653;50.080;21.992;2024-01-16T16:59:01;75.60;;;49.00;;
65871;SDS011;52653;50.080;21.992;2024-01-16T17:01:56;75.80;;;48.20;;